METAR Data
IDs: Format: Raw Decoded Include TAF

Data at: 1158 UTC 23 Sep 2018

KNUQ 231156Z 00000KT 10SM CLR 13/11 A2990 RMK AO2 SLP126 T01280111 10161 20122 58006 $
KNUQ 231056Z 00000KT 10SM CLR 13/11 A2990 RMK AO2 SLP128 T01330111 $
KNUQ 230956Z 00000KT 10SM CLR 14/12 A2991 RMK AO2 SLP130 T01390117 $
KNUQ 230856Z 00000KT 10SM CLR 14/12 A2991 RMK AO2 SLP132 T01440122 51001 $
KNUQ 230756Z 00000KT 10SM CLR 15/13 A2991 RMK AO2 SLP132 T01500128 402280128 $
KNUQ 230656Z 26003KT 10SM CLR 16/13 A2992 RMK AO2 SLP133 T01560128 $
KNUQ 230556Z 00000KT 10SM CLR 16/13 A2991 RMK AO2 SLP132 T01560128 10222 20156 58001 $
KNUQ 230456Z 00000KT 10SM CLR 16/13 A2993 RMK AO2 SLP137 T01610133 $
KNUQ 230356Z 30003KT 10SM CLR 16/13 A2992 RMK AO2 SLP133 T01610128 $
KNUQ 230256Z 00000KT 10SM CLR 17/13 A2992 RMK AO2 SLP132 T01720128 56000 $
KNUQ 230156Z 34007KT 10SM CLR 18/13 A2992 RMK AO2 SLP132 T01780128 $
KNUQ 230056Z 35007KT 10SM CLR 21/13 A2991 RMK AO2 SLP131 T02060128 $
KNUQ 222356Z 35009KT 10SM CLR 22/13 A2992 RMK AO2 SLP133 T02220133 10228 20183 56014 $
KNUQ 222256Z 34007KT 10SM CLR 22/11 A2993 RMK AO2 SLP137 T02220106 $
KNUQ 222156Z 36008KT 10SM CLR 22/14 A2993 RMK AO2 SLP138 T02220139 $
KNUQ 222056Z 35008KT 10SM CLR 22/13 A2996 RMK AO2 SLP147 T02170133 58015 $
KNUQ 221956Z 35006KT 10SM CLR 21/14 A2998 RMK AO2 SLP155 T02060139 $
KNUQ 221856Z 36006KT 8SM CLR 19/14 A2999 RMK AO2 SLP159 T01890139 $
KNUQ 221756Z 36005KT 6SM HZ CLR 18/13 A3000 RMK AO2 SLP161 T01830133 10183 20144 58001 $
KNUQ 221656Z 35005KT 6SM HZ FEW011 17/13 A3001 RMK AO2 SLP163 T01720133 $
KNUQ 221653Z 36004KT 6SM HZ SCT011 17/13 A3000 RMK AO2 $
KNUQ 221626Z 00000KT 5SM HZ OVC010 16/13 A3000 RMK AO2 T01610133 $
KNUQ 221556Z 00000KT 5SM BR OVC009 16/13 A3000 RMK AO2 SLP162 T01560133 $
KNUQ 221456Z 00000KT 5SM BR OVC008 14/13 A3000 RMK AO2 SLP160 T01440133 51005 $
KNUQ 221356Z 00000KT 6SM BR OVC008 14/13 A2999 RMK AO2 SLP159 T01440133 $
KNUQ 221256Z 00000KT 7SM OVC007 14/13 A2999 RMK AO2 SLP157 T01440133 $
KNUQ 221156Z 00000KT 9SM OVC008 14/13 A2998 RMK AO2 SLP155 T01440133 10156 20128 56004 $
KNUQ 221056Z 00000KT 10SM OVC009 14/12 A2998 RMK AO2 SLP156 T01390122 $
KNUQ 221046Z 00000KT 10SM OVC009 13/12 A2998 RMK AO2 T01330117 $
KNUQ 221026Z 00000KT 10SM BKN011 13/12 A2998 RMK AO2 T01330117 $
KNUQ 220956Z 00000KT 10SM CLR 14/12 A2999 RMK AO2 SLP157 T01440122 $
KNUQ 220856Z 00000KT 10SM CLR 14/13 A2999 RMK AO2 SLP159 T01440128 57004 $
KNUQ 220826Z 28003KT 10SM SCT010 15/13 A3000 RMK AO2 T01500128 $
KNUQ 220756Z 00000KT 10SM BKN010 14/13 A3000 RMK AO2 SLP160 T01440133 402610144 $
KNUQ 220656Z 00000KT 10SM CLR 15/13 A3000 RMK AO2 SLP162 T01500133 $
KNUQ 220556Z 00000KT 10SM CLR 16/13 A3001 RMK AO2 SLP163 T01560133 10217 20156 50012 $
KNUQ 220456Z VRB03KT 10SM CLR 16/13 A3001 RMK AO2 SLP163 T01610133 $
KNUQ 220356Z 34004KT 10SM CLR 16/13 A2999 RMK AO2 SLP158 T01610133 $
KNUQ 220256Z 32006KT 10SM CLR 17/14 A2997 RMK AO2 SLP151 T01720139 53011 $
KNUQ 220156Z 32006KT 10SM CLR 18/14 A2996 RMK AO2 SLP146 T01830144 $
KNUQ 220056Z 34009KT 10SM CLR 20/13 A2994 RMK AO2 SLP140 T02000133 $